sensor_id;sensor_type;location;lat;lon;timestamp;P1;durP1;ratioP1;P2;durP2;ratioP2
9524;SDS011;15940;48.734;9.112;2023-09-12T00:01:04;9.13;;;6.60;;
9524;SDS011;15940;48.734;9.112;2023-09-12T00:03:34;9.93;;;7.07;;
9524;SDS011;15940;48.734;9.112;2023-09-12T00:06:02;7.77;;;6.57;;
9524;SDS011;15940;48.734;9.112;2023-09-12T00:08:29;9.53;;;7.00;;
9524;SDS011;15940;48.734;9.112;2023-09-12T00:11:01;7.00;;;6.13;;
9524;SDS011;15940;48.734;9.112;2023-09-12T00:13:30;7.37;;;6.37;;
9524;SDS011;15940;48.734;9.112;2023-09-12T00:15:57;11.30;;;6.73;;
9524;SDS011;15940;48.734;9.112;2023-09-12T00:18:26;11.90;;;6.60;;
9524;SDS011;15940;48.734;9.112;2023-09-12T00:20:53;8.17;;;6.43;;
9524;SDS011;15940;48.734;9.112;2023-09-12T00:23:28;9.07;;;6.57;;
9524;SDS011;15940;48.734;9.112;2023-09-12T00:25:56;7.27;;;6.53;;
9524;SDS011;15940;48.734;9.112;2023-09-12T00:28:23;13.57;;;6.77;;
9524;SDS011;15940;48.734;9.112;2023-09-12T00:30:53;8.73;;;6.43;;
9524;SDS011;15940;48.734;9.112;2023-09-12T00:33:23;7.27;;;6.60;;
9524;SDS011;15940;48.734;9.112;2023-09-12T00:35:51;8.67;;;6.63;;
9524;SDS011;15940;48.734;9.112;2023-09-12T00:38:20;9.37;;;6.47;;
9524;SDS011;15940;48.734;9.112;2023-09-12T00:40:47;10.00;;;6.60;;
9524;SDS011;15940;48.734;9.112;2023-09-12T00:43:15;9.40;;;6.83;;
9524;SDS011;15940;48.734;9.112;2023-09-12T00:45:45;10.63;;;6.53;;
9524;SDS011;15940;48.734;9.112;2023-09-12T00:48:12;11.30;;;6.43;;
9524;SDS011;15940;48.734;9.112;2023-09-12T00:50:41;7.13;;;6.40;;
9524;SDS011;15940;48.734;9.112;2023-09-12T00:53:22;9.17;;;7.27;;
9524;SDS011;15940;48.734;9.112;2023-09-12T00:55:51;12.20;;;6.50;;
9524;SDS011;15940;48.734;9.112;2023-09-12T00:58:24;8.63;;;6.10;;
9524;SDS011;15940;48.734;9.112;2023-09-12T01:00:55;7.20;;;6.50;;
9524;SDS011;15940;48.734;9.112;2023-09-12T01:03:23;9.87;;;6.73;;
9524;SDS011;15940;48.734;9.112;2023-09-12T01:05:53;7.17;;;6.30;;
9524;SDS011;15940;48.734;9.112;2023-09-12T01:08:23;9.13;;;6.27;;
9524;SDS011;15940;48.734;9.112;2023-09-12T01:10:50;7.57;;;6.27;;
9524;SDS011;15940;48.734;9.112;2023-09-12T01:13:19;8.23;;;6.17;;
9524;SDS011;15940;48.734;9.112;2023-09-12T01:15:46;13.70;;;7.03;;
9524;SDS011;15940;48.734;9.112;2023-09-12T01:18:13;15.17;;;7.00;;
9524;SDS011;15940;48.734;9.112;2023-09-12T01:20:41;9.53;;;6.80;;
9524;SDS011;15940;48.734;9.112;2023-09-12T01:23:37;6.90;;;6.20;;
9524;SDS011;15940;48.734;9.112;2023-09-12T01:26:29;8.60;;;7.10;;
9524;SDS011;15940;48.734;9.112;2023-09-12T01:29:04;8.03;;;6.67;;
9524;SDS011;15940;48.734;9.112;2023-09-12T01:31:34;11.63;;;6.90;;
9524;SDS011;15940;48.734;9.112;2023-09-12T01:34:08;11.50;;;7.00;;
9524;SDS011;15940;48.734;9.112;2023-09-12T01:36:35;7.37;;;6.33;;
9524;SDS011;15940;48.734;9.112;2023-09-12T01:39:03;7.13;;;6.30;;
9524;SDS011;15940;48.734;9.112;2023-09-12T01:41:34;7.00;;;6.23;;
9524;SDS011;15940;48.734;9.112;2023-09-12T01:44:09;8.93;;;6.83;;
9524;SDS011;15940;48.734;9.112;2023-09-12T01:46:38;7.57;;;6.60;;
9524;SDS011;15940;48.734;9.112;2023-09-12T01:49:05;9.23;;;7.07;;
9524;SDS011;15940;48.734;9.112;2023-09-12T01:51:35;10.60;;;7.23;;
9524;SDS011;15940;48.734;9.112;2023-09-12T01:54:03;9.03;;;7.30;;
9524;SDS011;15940;48.734;9.112;2023-09-12T01:56:33;7.23;;;6.50;;
9524;SDS011;15940;48.734;9.112;2023-09-12T01:59:01;9.70;;;6.90;;
9524;SDS011;15940;48.734;9.112;2023-09-12T02:01:30;8.53;;;7.13;;
9524;SDS011;15940;48.734;9.112;2023-09-12T02:03:57;8.77;;;6.83;;
9524;SDS011;15940;48.734;9.112;2023-09-12T02:06:24;7.77;;;6.97;;
9524;SDS011;15940;48.734;9.112;2023-09-12T02:08:51;11.23;;;7.17;;
9524;SDS011;15940;48.734;9.112;2023-09-12T02:11:18;9.47;;;6.90;;
9524;SDS011;15940;48.734;9.112;2023-09-12T02:13:45;11.67;;;6.77;;
9524;SDS011;15940;48.734;9.112;2023-09-12T02:16:12;9.90;;;7.03;;
9524;SDS011;15940;48.734;9.112;2023-09-12T02:18:40;9.63;;;7.20;;
9524;SDS011;15940;48.734;9.112;2023-09-12T02:21:07;7.27;;;6.50;;
9524;SDS011;15940;48.734;9.112;2023-09-12T02:23:34;8.80;;;7.10;;
9524;SDS011;15940;48.734;9.112;2023-09-12T02:26:01;11.77;;;7.53;;
9524;SDS011;15940;48.734;9.112;2023-09-12T02:28:28;10.80;;;7.63;;
9524;SDS011;15940;48.734;9.112;2023-09-12T02:30:57;10.07;;;7.17;;
9524;SDS011;15940;48.734;9.112;2023-09-12T02:33:24;9.57;;;7.47;;
9524;SDS011;15940;48.734;9.112;2023-09-12T02:35:52;10.70;;;7.00;;
9524;SDS011;15940;48.734;9.112;2023-09-12T02:38:19;9.67;;;6.80;;
9524;SDS011;15940;48.734;9.112;2023-09-12T02:40:48;12.33;;;8.00;;
9524;SDS011;15940;48.734;9.112;2023-09-12T02:43:15;9.80;;;6.77;;
9524;SDS011;15940;48.734;9.112;2023-09-12T02:45:42;11.60;;;7.10;;
9524;SDS011;15940;48.734;9.112;2023-09-12T02:48:09;8.00;;;6.87;;
9524;SDS011;15940;48.734;9.112;2023-09-12T02:50:36;12.43;;;7.70;;
9524;SDS011;15940;48.734;9.112;2023-09-12T02:53:05;8.73;;;6.90;;
9524;SDS011;15940;48.734;9.112;2023-09-12T02:55:39;8.90;;;7.00;;
9524;SDS011;15940;48.734;9.112;2023-09-12T02:58:07;8.70;;;7.07;;
9524;SDS011;15940;48.734;9.112;2023-09-12T03:00:37;9.30;;;7.20;;
9524;SDS011;15940;48.734;9.112;2023-09-12T03:03:07;10.33;;;6.93;;
9524;SDS011;15940;48.734;9.112;2023-09-12T03:05:34;9.37;;;7.20;;
9524;SDS011;15940;48.734;9.112;2023-09-12T03:08:01;8.97;;;6.97;;
9524;SDS011;15940;48.734;9.112;2023-09-12T03:10:30;9.37;;;6.63;;
9524;SDS011;15940;48.734;9.112;2023-09-12T03:12:57;9.67;;;6.83;;
9524;SDS011;15940;48.734;9.112;2023-09-12T03:15:27;7.43;;;6.63;;
9524;SDS011;15940;48.734;9.112;2023-09-12T03:17:54;9.60;;;6.53;;
9524;SDS011;15940;48.734;9.112;2023-09-12T03:20:22;9.67;;;7.10;;
9524;SDS011;15940;48.734;9.112;2023-09-12T03:22:49;11.30;;;6.90;;
9524;SDS011;15940;48.734;9.112;2023-09-12T03:25:16;8.43;;;6.80;;
9524;SDS011;15940;48.734;9.112;2023-09-12T03:27:47;9.27;;;6.97;;
9524;SDS011;15940;48.734;9.112;2023-09-12T03:30:17;8.67;;;7.17;;
9524;SDS011;15940;48.734;9.112;2023-09-12T03:32:46;11.80;;;7.30;;
9524;SDS011;15940;48.734;9.112;2023-09-12T03:35:12;8.13;;;7.07;;
9524;SDS011;15940;48.734;9.112;2023-09-12T03:37:40;8.83;;;7.20;;
9524;SDS011;15940;48.734;9.112;2023-09-12T03:40:08;10.03;;;7.37;;
9524;SDS011;15940;48.734;9.112;2023-09-12T03:42:37;8.17;;;7.37;;
9524;SDS011;15940;48.734;9.112;2023-09-12T03:45:06;12.27;;;6.90;;
9524;SDS011;15940;48.734;9.112;2023-09-12T03:47:34;8.60;;;6.63;;
9524;SDS011;15940;48.734;9.112;2023-09-12T03:50:01;9.73;;;7.17;;
9524;SDS011;15940;48.734;9.112;2023-09-12T03:52:29;10.93;;;7.03;;
9524;SDS011;15940;48.734;9.112;2023-09-12T03:54:55;7.40;;;6.70;;
9524;SDS011;15940;48.734;9.112;2023-09-12T03:57:22;8.93;;;6.60;;
9524;SDS011;15940;48.734;9.112;2023-09-12T03:59:52;8.73;;;6.90;;
9524;SDS011;15940;48.734;9.112;2023-09-12T04:02:26;8.23;;;6.77;;
9524;SDS011;15940;48.734;9.112;2023-09-12T04:04:53;10.60;;;6.83;;
9524;SDS011;15940;48.734;9.112;2023-09-12T04:07:23;11.43;;;7.80;;
9524;SDS011;15940;48.734;9.112;2023-09-12T04:09:53;8.77;;;7.30;;
9524;SDS011;15940;48.734;9.112;2023-09-12T04:12:23;9.77;;;6.80;;
9524;SDS011;15940;48.734;9.112;2023-09-12T04:14:50;8.27;;;7.00;;
9524;SDS011;15940;48.734;9.112;2023-09-12T04:17:21;7.53;;;6.77;;
9524;SDS011;15940;48.734;9.112;2023-09-12T04:19:50;10.27;;;7.27;;
9524;SDS011;15940;48.734;9.112;2023-09-12T04:22:17;9.37;;;7.33;;
9524;SDS011;15940;48.734;9.112;2023-09-12T04:24:44;11.17;;;7.93;;
9524;SDS011;15940;48.734;9.112;2023-09-12T04:27:11;10.20;;;8.03;;
9524;SDS011;15940;48.734;9.112;2023-09-12T04:29:37;11.77;;;8.00;;
9524;SDS011;15940;48.734;9.112;2023-09-12T04:32:07;10.47;;;7.73;;
9524;SDS011;15940;48.734;9.112;2023-09-12T04:34:34;8.47;;;7.50;;
9524;SDS011;15940;48.734;9.112;2023-09-12T04:37:04;8.20;;;7.40;;
9524;SDS011;15940;48.734;9.112;2023-09-12T04:39:31;8.60;;;7.40;;
9524;SDS011;15940;48.734;9.112;2023-09-12T04:41:58;9.00;;;7.80;;
9524;SDS011;15940;48.734;9.112;2023-09-12T04:44:30;10.93;;;7.37;;
9524;SDS011;15940;48.734;9.112;2023-09-12T04:47:02;10.97;;;7.70;;
9524;SDS011;15940;48.734;9.112;2023-09-12T04:49:29;10.97;;;7.93;;
9524;SDS011;15940;48.734;9.112;2023-09-12T04:51:56;9.57;;;7.57;;
9524;SDS011;15940;48.734;9.112;2023-09-12T04:54:25;9.37;;;8.03;;
9524;SDS011;15940;48.734;9.112;2023-09-12T04:56:52;13.43;;;8.40;;
9524;SDS011;15940;48.734;9.112;2023-09-12T04:59:19;9.77;;;7.93;;
9524;SDS011;15940;48.734;9.112;2023-09-12T05:01:48;10.07;;;7.57;;
9524;SDS011;15940;48.734;9.112;2023-09-12T05:04:16;12.00;;;8.37;;
9524;SDS011;15940;48.734;9.112;2023-09-12T05:06:43;9.77;;;8.33;;
9524;SDS011;15940;48.734;9.112;2023-09-12T05:09:10;12.43;;;8.53;;
9524;SDS011;15940;48.734;9.112;2023-09-12T05:11:38;9.30;;;8.20;;
9524;SDS011;15940;48.734;9.112;2023-09-12T05:14:05;12.03;;;7.73;;
9524;SDS011;15940;48.734;9.112;2023-09-12T05:16:32;9.47;;;7.43;;
9524;SDS011;15940;48.734;9.112;2023-09-12T05:18:59;10.40;;;8.40;;
9524;SDS011;15940;48.734;9.112;2023-09-12T05:21:28;10.03;;;8.37;;
9524;SDS011;15940;48.734;9.112;2023-09-12T05:23:55;11.10;;;7.87;;
9524;SDS011;15940;48.734;9.112;2023-09-12T05:26:22;8.80;;;7.83;;
9524;SDS011;15940;48.734;9.112;2023-09-12T05:28:55;8.87;;;7.73;;
9524;SDS011;15940;48.734;9.112;2023-09-12T05:31:25;11.47;;;8.37;;
9524;SDS011;15940;48.734;9.112;2023-09-12T05:33:53;10.67;;;8.13;;
9524;SDS011;15940;48.734;9.112;2023-09-12T05:36:20;10.00;;;8.23;;
9524;SDS011;15940;48.734;9.112;2023-09-12T05:38:47;8.47;;;7.57;;
9524;SDS011;15940;48.734;9.112;2023-09-12T05:41:14;13.37;;;8.00;;
9524;SDS011;15940;48.734;9.112;2023-09-12T05:43:41;8.80;;;7.97;;
9524;SDS011;15940;48.734;9.112;2023-09-12T05:46:09;8.87;;;8.00;;
9524;SDS011;15940;48.734;9.112;2023-09-12T05:48:36;8.90;;;8.00;;
9524;SDS011;15940;48.734;9.112;2023-09-12T05:51:03;8.40;;;7.60;;
9524;SDS011;15940;48.734;9.112;2023-09-12T05:53:30;10.30;;;7.77;;
9524;SDS011;15940;48.734;9.112;2023-09-12T05:55:57;13.13;;;8.20;;
9524;SDS011;15940;48.734;9.112;2023-09-12T05:58:24;9.77;;;7.60;;
9524;SDS011;15940;48.734;9.112;2023-09-12T06:00:51;8.60;;;7.80;;
9524;SDS011;15940;48.734;9.112;2023-09-12T06:03:23;7.97;;;7.10;;
9524;SDS011;15940;48.734;9.112;2023-09-12T06:05:55;8.90;;;7.53;;
9524;SDS011;15940;48.734;9.112;2023-09-12T06:08:22;7.87;;;7.07;;
9524;SDS011;15940;48.734;9.112;2023-09-12T06:10:49;7.63;;;6.63;;
9524;SDS011;15940;48.734;9.112;2023-09-12T06:13:18;7.80;;;7.00;;
9524;SDS011;15940;48.734;9.112;2023-09-12T06:15:45;8.53;;;6.93;;
9524;SDS011;15940;48.734;9.112;2023-09-12T06:18:12;7.73;;;6.90;;
9524;SDS011;15940;48.734;9.112;2023-09-12T06:20:41;7.63;;;6.87;;
9524;SDS011;15940;48.734;9.112;2023-09-12T06:23:10;9.33;;;7.40;;
9524;SDS011;15940;48.734;9.112;2023-09-12T06:25:37;7.57;;;6.80;;
9524;SDS011;15940;48.734;9.112;2023-09-12T06:28:05;10.70;;;6.43;;
9524;SDS011;15940;48.734;9.112;2023-09-12T06:30:37;8.20;;;5.97;;
9524;SDS011;15940;48.734;9.112;2023-09-12T06:33:04;7.37;;;6.67;;
9524;SDS011;15940;48.734;9.112;2023-09-12T06:35:31;7.83;;;6.90;;
9524;SDS011;15940;48.734;9.112;2023-09-12T06:38:03;9.77;;;6.77;;
9524;SDS011;15940;48.734;9.112;2023-09-12T06:40:30;8.37;;;6.70;;
9524;SDS011;15940;48.734;9.112;2023-09-12T06:42:56;8.00;;;7.20;;
9524;SDS011;15940;48.734;9.112;2023-09-12T06:45:23;8.23;;;6.67;;
9524;SDS011;15940;48.734;9.112;2023-09-12T06:47:50;7.70;;;6.90;;
9524;SDS011;15940;48.734;9.112;2023-09-12T06:50:17;7.53;;;6.83;;
9524;SDS011;15940;48.734;9.112;2023-09-12T06:52:44;11.20;;;7.00;;
9524;SDS011;15940;48.734;9.112;2023-09-12T06:55:12;8.37;;;7.67;;
9524;SDS011;15940;48.734;9.112;2023-09-12T06:57:39;8.10;;;7.27;;
9524;SDS011;15940;48.734;9.112;2023-09-12T07:00:07;7.70;;;6.90;;
9524;SDS011;15940;48.734;9.112;2023-09-12T07:02:36;8.17;;;7.47;;
9524;SDS011;15940;48.734;9.112;2023-09-12T07:05:03;8.47;;;7.60;;
9524;SDS011;15940;48.734;9.112;2023-09-12T07:07:30;9.07;;;7.53;;
9524;SDS011;15940;48.734;9.112;2023-09-12T07:10:00;8.30;;;7.20;;
9524;SDS011;15940;48.734;9.112;2023-09-12T07:12:29;8.73;;;7.57;;
9524;SDS011;15940;48.734;9.112;2023-09-12T07:14:58;8.07;;;7.23;;
9524;SDS011;15940;48.734;9.112;2023-09-12T07:17:27;7.83;;;7.13;;
9524;SDS011;15940;48.734;9.112;2023-09-12T07:19:56;10.50;;;7.07;;
9524;SDS011;15940;48.734;9.112;2023-09-12T07:22:24;10.27;;;7.33;;
9524;SDS011;15940;48.734;9.112;2023-09-12T07:24:51;12.63;;;7.40;;
9524;SDS011;15940;48.734;9.112;2023-09-12T07:27:18;10.53;;;7.50;;
9524;SDS011;15940;48.734;9.112;2023-09-12T07:29:47;9.57;;;7.73;;
9524;SDS011;15940;48.734;9.112;2023-09-12T07:32:14;7.63;;;7.03;;
9524;SDS011;15940;48.734;9.112;2023-09-12T07:34:41;7.73;;;7.03;;
9524;SDS011;15940;48.734;9.112;2023-09-12T07:37:13;7.80;;;7.10;;
9524;SDS011;15940;48.734;9.112;2023-09-12T07:39:40;7.83;;;6.77;;
9524;SDS011;15940;48.734;9.112;2023-09-12T07:42:07;7.63;;;6.90;;
9524;SDS011;15940;48.734;9.112;2023-09-12T07:44:36;7.40;;;6.70;;
9524;SDS011;15940;48.734;9.112;2023-09-12T07:47:05;7.47;;;6.70;;
9524;SDS011;15940;48.734;9.112;2023-09-12T07:49:35;8.57;;;7.77;;
9524;SDS011;15940;48.734;9.112;2023-09-12T07:52:05;7.00;;;6.40;;
9524;SDS011;15940;48.734;9.112;2023-09-12T07:54:32;9.63;;;7.40;;
9524;SDS011;15940;48.734;9.112;2023-09-12T07:56:59;10.70;;;7.13;;
9524;SDS011;15940;48.734;9.112;2023-09-12T07:59:26;7.80;;;7.10;;
9524;SDS011;15940;48.734;9.112;2023-09-12T08:01:53;9.57;;;7.40;;
9524;SDS011;15940;48.734;9.112;2023-09-12T08:04:21;8.97;;;7.47;;
9524;SDS011;15940;48.734;9.112;2023-09-12T08:06:48;7.83;;;7.13;;
9524;SDS011;15940;48.734;9.112;2023-09-12T08:09:15;7.33;;;6.70;;
9524;SDS011;15940;48.734;9.112;2023-09-12T08:11:44;7.10;;;6.40;;
9524;SDS011;15940;48.734;9.112;2023-09-12T08:14:11;9.60;;;7.20;;
9524;SDS011;15940;48.734;9.112;2023-09-12T08:16:41;7.33;;;6.63;;
9524;SDS011;15940;48.734;9.112;2023-09-12T08:19:08;7.37;;;6.67;;
9524;SDS011;15940;48.734;9.112;2023-09-12T08:21:36;10.13;;;7.07;;
9524;SDS011;15940;48.734;9.112;2023-09-12T08:24:03;8.10;;;7.40;;
9524;SDS011;15940;48.734;9.112;2023-09-12T08:26:31;7.80;;;6.73;;
9524;SDS011;15940;48.734;9.112;2023-09-12T08:28:58;7.43;;;6.73;;
9524;SDS011;15940;48.734;9.112;2023-09-12T08:31:25;10.43;;;6.80;;
9524;SDS011;15940;48.734;9.112;2023-09-12T08:33:54;7.60;;;6.90;;
9524;SDS011;15940;48.734;9.112;2023-09-12T08:36:21;9.90;;;6.93;;
9524;SDS011;15940;48.734;9.112;2023-09-12T08:38:51;7.40;;;6.60;;
9524;SDS011;15940;48.734;9.112;2023-09-12T08:41:18;7.90;;;7.03;;
9524;SDS011;15940;48.734;9.112;2023-09-12T08:43:45;8.03;;;7.10;;
9524;SDS011;15940;48.734;9.112;2023-09-12T08:46:13;7.10;;;6.50;;
9524;SDS011;15940;48.734;9.112;2023-09-12T08:48:49;7.67;;;6.27;;
9524;SDS011;15940;48.734;9.112;2023-09-12T08:51:18;9.27;;;7.07;;
9524;SDS011;15940;48.734;9.112;2023-09-12T08:53:45;9.53;;;6.60;;
9524;SDS011;15940;48.734;9.112;2023-09-12T08:56:13;7.80;;;7.00;;
9524;SDS011;15940;48.734;9.112;2023-09-12T08:58:41;9.83;;;7.03;;
9524;SDS011;15940;48.734;9.112;2023-09-12T09:01:09;7.83;;;7.00;;
9524;SDS011;15940;48.734;9.112;2023-09-12T09:03:38;8.90;;;7.47;;
9524;SDS011;15940;48.734;9.112;2023-09-12T09:06:07;7.57;;;6.87;;
9524;SDS011;15940;48.734;9.112;2023-09-12T09:08:39;8.83;;;7.37;;
9524;SDS011;15940;48.734;9.112;2023-09-12T09:11:07;9.57;;;7.17;;
9524;SDS011;15940;48.734;9.112;2023-09-12T09:13:37;8.67;;;7.53;;
9524;SDS011;15940;48.734;9.112;2023-09-12T09:16:10;8.07;;;6.67;;
9524;SDS011;15940;48.734;9.112;2023-09-12T09:18:51;7.20;;;6.60;;
9524;SDS011;15940;48.734;9.112;2023-09-12T09:21:19;8.27;;;7.40;;
9524;SDS011;15940;48.734;9.112;2023-09-12T09:23:49;7.60;;;6.90;;
9524;SDS011;15940;48.734;9.112;2023-09-12T09:26:19;11.37;;;7.10;;
9524;SDS011;15940;48.734;9.112;2023-09-12T09:31:35;7.50;;;6.80;;
9524;SDS011;15940;48.734;9.112;2023-09-12T09:34:09;8.20;;;7.17;;
9524;SDS011;15940;48.734;9.112;2023-09-12T09:36:40;7.33;;;6.67;;
9524;SDS011;15940;48.734;9.112;2023-09-12T09:39:08;11.47;;;6.87;;
9524;SDS011;15940;48.734;9.112;2023-09-12T09:41:36;7.63;;;6.73;;
9524;SDS011;15940;48.734;9.112;2023-09-12T09:44:05;7.87;;;7.13;;
9524;SDS011;15940;48.734;9.112;2023-09-12T09:46:34;11.33;;;7.30;;
9524;SDS011;15940;48.734;9.112;2023-09-12T09:49:03;8.77;;;6.77;;
9524;SDS011;15940;48.734;9.112;2023-09-12T09:51:31;9.07;;;6.60;;
9524;SDS011;15940;48.734;9.112;2023-09-12T09:53:58;9.23;;;6.93;;
9524;SDS011;15940;48.734;9.112;2023-09-12T09:56:25;8.73;;;7.10;;
9524;SDS011;15940;48.734;9.112;2023-09-12T09:58:53;7.17;;;6.30;;
9524;SDS011;15940;48.734;9.112;2023-09-12T10:01:27;7.30;;;6.63;;
9524;SDS011;15940;48.734;9.112;2023-09-12T10:03:57;7.60;;;6.27;;
9524;SDS011;15940;48.734;9.112;2023-09-12T10:06:28;7.83;;;6.50;;
9524;SDS011;15940;48.734;9.112;2023-09-12T10:08:55;7.47;;;6.30;;
9524;SDS011;15940;48.734;9.112;2023-09-12T10:11:24;6.70;;;6.00;;
9524;SDS011;15940;48.734;9.112;2023-09-12T10:13:59;7.20;;;6.57;;
9524;SDS011;15940;48.734;9.112;2023-09-12T10:16:31;7.43;;;6.00;;
9524;SDS011;15940;48.734;9.112;2023-09-12T10:19:07;10.87;;;6.33;;
9524;SDS011;15940;48.734;9.112;2023-09-12T10:21:41;6.93;;;6.17;;
9524;SDS011;15940;48.734;9.112;2023-09-12T10:24:15;9.33;;;6.60;;
9524;SDS011;15940;48.734;9.112;2023-09-12T10:26:46;10.00;;;6.70;;
9524;SDS011;15940;48.734;9.112;2023-09-12T10:29:16;7.17;;;6.27;;
9524;SDS011;15940;48.734;9.112;2023-09-12T10:31:44;6.60;;;6.00;;
9524;SDS011;15940;48.734;9.112;2023-09-12T10:34:14;7.47;;;6.20;;
9524;SDS011;15940;48.734;9.112;2023-09-12T10:36:44;7.30;;;6.50;;
9524;SDS011;15940;48.734;9.112;2023-09-12T10:39:13;7.70;;;6.20;;
9524;SDS011;15940;48.734;9.112;2023-09-12T10:41:41;10.87;;;6.33;;
9524;SDS011;15940;48.734;9.112;2023-09-12T10:44:09;12.40;;;6.80;;
9524;SDS011;15940;48.734;9.112;2023-09-12T10:46:41;10.30;;;6.63;;
9524;SDS011;15940;48.734;9.112;2023-09-12T10:49:12;8.40;;;5.90;;
9524;SDS011;15940;48.734;9.112;2023-09-12T10:51:40;9.73;;;6.33;;
9524;SDS011;15940;48.734;9.112;2023-09-12T10:54:12;9.57;;;5.97;;
9524;SDS011;15940;48.734;9.112;2023-09-12T10:56:41;11.27;;;6.50;;
9524;SDS011;15940;48.734;9.112;2023-09-12T10:59:10;7.87;;;6.53;;
9524;SDS011;15940;48.734;9.112;2023-09-12T11:01:39;9.37;;;6.23;;
9524;SDS011;15940;48.734;9.112;2023-09-12T11:04:30;9.33;;;6.20;;
9524;SDS011;15940;48.734;9.112;2023-09-12T11:06:59;6.80;;;6.07;;
9524;SDS011;15940;48.734;9.112;2023-09-12T11:09:27;6.53;;;5.93;;
9524;SDS011;15940;48.734;9.112;2023-09-12T11:11:55;6.63;;;5.90;;
9524;SDS011;15940;48.734;9.112;2023-09-12T11:14:25;14.00;;;6.37;;
9524;SDS011;15940;48.734;9.112;2023-09-12T11:19:49;7.57;;;6.77;;
9524;SDS011;15940;48.734;9.112;2023-09-12T11:22:22;8.53;;;6.27;;
9524;SDS011;15940;48.734;9.112;2023-09-12T11:24:51;6.47;;;5.87;;
9524;SDS011;15940;48.734;9.112;2023-09-12T11:27:20;7.53;;;6.60;;
9524;SDS011;15940;48.734;9.112;2023-09-12T11:29:48;6.90;;;6.40;;
9524;SDS011;15940;48.734;9.112;2023-09-12T11:32:25;10.13;;;6.53;;
9524;SDS011;15940;48.734;9.112;2023-09-12T11:35:00;9.33;;;6.23;;
9524;SDS011;15940;48.734;9.112;2023-09-12T11:37:32;9.60;;;6.73;;
9524;SDS011;15940;48.734;9.112;2023-09-12T11:40:02;7.30;;;6.20;;
9524;SDS011;15940;48.734;9.112;2023-09-12T11:42:42;7.93;;;6.27;;
9524;SDS011;15940;48.734;9.112;2023-09-12T11:45:11;6.83;;;6.23;;
9524;SDS011;15940;48.734;9.112;2023-09-12T11:47:39;7.70;;;6.20;;
9524;SDS011;15940;48.734;9.112;2023-09-12T11:50:08;7.77;;;6.27;;
9524;SDS011;15940;48.734;9.112;2023-09-12T11:52:57;6.73;;;6.10;;
9524;SDS011;15940;48.734;9.112;2023-09-12T11:55:26;6.40;;;5.70;;
9524;SDS011;15940;48.734;9.112;2023-09-12T11:57:55;7.07;;;6.37;;
9524;SDS011;15940;48.734;9.112;2023-09-12T12:00:26;7.50;;;5.67;;
9524;SDS011;15940;48.734;9.112;2023-09-12T12:02:54;7.50;;;6.00;;
9524;SDS011;15940;48.734;9.112;2023-09-12T12:05:23;7.93;;;6.00;;
9524;SDS011;15940;48.734;9.112;2023-09-12T12:07:50;8.00;;;6.60;;
9524;SDS011;15940;48.734;9.112;2023-09-12T12:10:17;15.43;;;6.87;;
9524;SDS011;15940;48.734;9.112;2023-09-12T12:12:53;8.30;;;6.77;;
9524;SDS011;15940;48.734;9.112;2023-09-12T12:15:22;11.30;;;7.03;;
9524;SDS011;15940;48.734;9.112;2023-09-12T12:17:54;8.03;;;6.60;;
9524;SDS011;15940;48.734;9.112;2023-09-12T12:20:22;8.87;;;6.30;;
9524;SDS011;15940;48.734;9.112;2023-09-12T12:22:50;7.53;;;6.53;;
9524;SDS011;15940;48.734;9.112;2023-09-12T12:25:17;9.57;;;6.50;;
9524;SDS011;15940;48.734;9.112;2023-09-12T12:27:44;7.67;;;5.90;;
9524;SDS011;15940;48.734;9.112;2023-09-12T12:30:12;11.60;;;5.87;;
9524;SDS011;15940;48.734;9.112;2023-09-12T12:32:40;9.73;;;6.10;;
9524;SDS011;15940;48.734;9.112;2023-09-12T12:35:08;8.90;;;5.87;;
9524;SDS011;15940;48.734;9.112;2023-09-12T12:37:37;6.33;;;5.23;;
9524;SDS011;15940;48.734;9.112;2023-09-12T12:40:04;7.23;;;5.87;;
9524;SDS011;15940;48.734;9.112;2023-09-12T12:42:38;7.07;;;5.20;;
9524;SDS011;15940;48.734;9.112;2023-09-12T12:45:10;6.90;;;5.50;;
9524;SDS011;15940;48.734;9.112;2023-09-12T12:47:38;6.27;;;5.67;;
9524;SDS011;15940;48.734;9.112;2023-09-12T12:50:07;6.90;;;6.30;;
9524;SDS011;15940;48.734;9.112;2023-09-12T12:52:38;12.60;;;7.00;;
9524;SDS011;15940;48.734;9.112;2023-09-12T12:55:06;7.90;;;6.60;;
9524;SDS011;15940;48.734;9.112;2023-09-12T12:57:36;10.33;;;6.43;;
9524;SDS011;15940;48.734;9.112;2023-09-12T13:00:05;8.43;;;5.87;;
9524;SDS011;15940;48.734;9.112;2023-09-12T13:02:36;10.10;;;6.50;;
9524;SDS011;15940;48.734;9.112;2023-09-12T13:05:06;9.00;;;6.27;;
9524;SDS011;15940;48.734;9.112;2023-09-12T13:07:54;7.97;;;6.53;;
9524;SDS011;15940;48.734;9.112;2023-09-12T13:10:22;9.83;;;6.53;;
9524;SDS011;15940;48.734;9.112;2023-09-12T13:12:49;9.97;;;6.37;;
9524;SDS011;15940;48.734;9.112;2023-09-12T13:15:17;8.27;;;6.60;;
9524;SDS011;15940;48.734;9.112;2023-09-12T13:17:44;7.20;;;5.90;;
9524;SDS011;15940;48.734;9.112;2023-09-12T13:20:11;7.00;;;6.20;;
9524;SDS011;15940;48.734;9.112;2023-09-12T13:22:41;9.40;;;6.20;;
9524;SDS011;15940;48.734;9.112;2023-09-12T13:25:10;7.73;;;6.57;;
9524;SDS011;15940;48.734;9.112;2023-09-12T13:27:37;7.57;;;6.20;;
9524;SDS011;15940;48.734;9.112;2023-09-12T13:30:08;6.27;;;5.63;;
9524;SDS011;15940;48.734;9.112;2023-09-12T13:32:36;9.03;;;6.33;;
9524;SDS011;15940;48.734;9.112;2023-09-12T13:35:03;8.83;;;6.10;;
9524;SDS011;15940;48.734;9.112;2023-09-12T13:37:31;8.87;;;6.30;;
9524;SDS011;15940;48.734;9.112;2023-09-12T13:39:58;10.03;;;6.20;;
9524;SDS011;15940;48.734;9.112;2023-09-12T13:42:30;6.90;;;6.00;;
9524;SDS011;15940;48.734;9.112;2023-09-12T13:44:59;8.80;;;5.90;;
9524;SDS011;15940;48.734;9.112;2023-09-12T13:47:27;9.00;;;6.13;;
9524;SDS011;15940;48.734;9.112;2023-09-12T13:49:54;7.40;;;6.07;;
9524;SDS011;15940;48.734;9.112;2023-09-12T13:52:25;8.67;;;6.47;;
9524;SDS011;15940;48.734;9.112;2023-09-12T13:54:52;11.07;;;6.50;;
9524;SDS011;15940;48.734;9.112;2023-09-12T13:57:19;8.73;;;5.83;;
9524;SDS011;15940;48.734;9.112;2023-09-12T13:59:48;11.23;;;6.50;;
9524;SDS011;15940;48.734;9.112;2023-09-12T14:02:15;8.00;;;6.27;;
9524;SDS011;15940;48.734;9.112;2023-09-12T14:04:44;6.20;;;5.53;;
9524;SDS011;15940;48.734;9.112;2023-09-12T14:07:14;13.33;;;6.70;;
9524;SDS011;15940;48.734;9.112;2023-09-12T14:09:41;7.53;;;5.77;;
9524;SDS011;15940;48.734;9.112;2023-09-12T14:12:08;9.00;;;6.63;;
9524;SDS011;15940;48.734;9.112;2023-09-12T14:14:36;7.53;;;6.30;;
9524;SDS011;15940;48.734;9.112;2023-09-12T14:17:04;9.43;;;6.27;;
9524;SDS011;15940;48.734;9.112;2023-09-12T14:19:31;9.37;;;6.37;;
9524;SDS011;15940;48.734;9.112;2023-09-12T14:21:59;13.83;;;6.33;;
9524;SDS011;15940;48.734;9.112;2023-09-12T14:24:26;7.90;;;6.03;;
9524;SDS011;15940;48.734;9.112;2023-09-12T14:26:53;10.43;;;6.53;;
9524;SDS011;15940;48.734;9.112;2023-09-12T14:29:20;9.17;;;6.30;;
9524;SDS011;15940;48.734;9.112;2023-09-12T14:31:48;7.30;;;5.77;;
9524;SDS011;15940;48.734;9.112;2023-09-12T14:34:19;6.90;;;5.87;;
9524;SDS011;15940;48.734;9.112;2023-09-12T14:36:52;7.67;;;6.17;;
9524;SDS011;15940;48.734;9.112;2023-09-12T14:39:19;11.90;;;6.63;;
9524;SDS011;15940;48.734;9.112;2023-09-12T14:41:46;9.70;;;6.10;;
9524;SDS011;15940;48.734;9.112;2023-09-12T14:44:16;7.43;;;6.00;;
9524;SDS011;15940;48.734;9.112;2023-09-12T14:46:46;10.43;;;6.43;;
9524;SDS011;15940;48.734;9.112;2023-09-12T14:49:16;12.57;;;6.63;;
9524;SDS011;15940;48.734;9.112;2023-09-12T14:51:45;7.50;;;6.27;;
9524;SDS011;15940;48.734;9.112;2023-09-12T14:54:12;8.27;;;6.10;;
9524;SDS011;15940;48.734;9.112;2023-09-12T14:56:39;7.17;;;5.67;;
9524;SDS011;15940;48.734;9.112;2023-09-12T14:59:07;6.10;;;5.60;;
9524;SDS011;15940;48.734;9.112;2023-09-12T15:01:34;10.47;;;6.37;;
9524;SDS011;15940;48.734;9.112;2023-09-12T15:04:03;7.20;;;6.43;;
9524;SDS011;15940;48.734;9.112;2023-09-12T15:06:31;9.20;;;6.07;;
9524;SDS011;15940;48.734;9.112;2023-09-12T15:08:58;8.27;;;5.97;;
9524;SDS011;15940;48.734;9.112;2023-09-12T15:11:28;7.30;;;6.50;;
9524;SDS011;15940;48.734;9.112;2023-09-12T15:13:56;7.13;;;6.43;;